createdAt,value
2022-08-23T00:01:33.013Z,66.37
2022-08-23T00:04:05.131Z,65.71
2022-08-23T00:06:32.538Z,65.70
2022-08-23T00:08:59.254Z,66.16
2022-08-23T00:11:36.220Z,66.44
2022-08-23T00:14:09.084Z,66.91
2022-08-23T00:16:35.590Z,66.99
2022-08-23T00:19:05.706Z,66.91
2022-08-23T00:21:32.107Z,66.81
2022-08-23T00:23:58.667Z,67.08
2022-08-23T00:26:26.003Z,66.97
2022-08-23T00:28:52.387Z,67.70
2022-08-23T00:31:19.515Z,67.61
2022-08-23T00:33:45.947Z,67.45
2022-08-23T00:36:12.369Z,67.63
2022-08-23T00:38:39.109Z,67.74
2022-08-23T00:41:05.853Z,68.49
2022-08-23T00:43:55.124Z,68.52
2022-08-23T00:46:54.132Z,68.80
2022-08-23T00:49:21.163Z,68.14
2022-08-23T00:52:08.214Z,68.93
2022-08-23T00:54:35.292Z,68.82
2022-08-23T00:57:05.512Z,69.01
2022-08-23T00:59:32.568Z,69.12
2022-08-23T01:02:00.350Z,68.57
2022-08-23T01:04:34.331Z,68.84
2022-08-23T01:07:10.001Z,69.04
2022-08-23T01:09:37.975Z,68.59
2022-08-23T01:12:18.546Z,69.12
2022-08-23T01:15:00.666Z,68.86
2022-08-23T01:17:30.988Z,68.77
2022-08-23T01:20:10.345Z,69.19
2022-08-23T01:23:07.183Z,69.06
2022-08-23T01:25:33.840Z,68.87
2022-08-23T01:28:01.212Z,68.63
2022-08-23T01:30:32.440Z,69.09
2022-08-23T01:33:01.282Z,68.96
2022-08-23T01:35:38.102Z,69.01
2022-08-23T01:38:05.592Z,68.51
2022-08-23T01:40:32.941Z,68.67
2022-08-23T01:43:00.311Z,68.63
2022-08-23T01:45:27.382Z,68.88
2022-08-23T01:47:53.864Z,69.22
2022-08-23T01:50:20.581Z,69.10
2022-08-23T01:52:47.555Z,68.80
2022-08-23T01:55:14.363Z,68.69
2022-08-23T01:57:41.908Z,68.86
2022-08-23T02:00:09.376Z,69.07
2022-08-23T02:02:40.823Z,69.15
2022-08-23T02:05:08.197Z,69.49
2022-08-23T02:07:34.817Z,69.78
2022-08-23T02:10:01.236Z,70.00
2022-08-23T02:12:29.813Z,70.10
2022-08-23T02:14:56.690Z,70.15
2022-08-23T02:17:23.163Z,69.97
2022-08-23T02:19:49.692Z,70.00
2022-08-23T02:22:16.117Z,70.56
2022-08-23T02:24:44.527Z,70.39
2022-08-23T02:27:12.033Z,70.48
2022-08-23T02:29:39.466Z,70.93
2022-08-23T02:32:06.779Z,70.73
2022-08-23T02:34:33.345Z,70.67
2022-08-23T02:37:00.090Z,70.91
2022-08-23T02:39:26.953Z,70.87
2022-08-23T02:41:53.762Z,71.05
2022-08-23T02:44:20.843Z,71.53
2022-08-23T02:46:47.702Z,71.86
2022-08-23T02:49:14.413Z,71.71
2022-08-23T02:51:41.361Z,71.69
2022-08-23T02:54:07.876Z,71.67
2022-08-23T02:56:34.307Z,71.88
2022-08-23T02:59:00.969Z,72.78
2022-08-23T03:01:30.136Z,73.00
2022-08-23T03:03:58.153Z,72.03
2022-08-23T03:06:26.537Z,71.03
2022-08-23T03:08:54.553Z,71.36
2022-08-23T03:11:22.692Z,71.30
2022-08-23T03:13:50.192Z,71.61
2022-08-23T03:16:18.131Z,71.50
2022-08-23T03:18:44.701Z,71.26
2022-08-23T03:21:11.335Z,70.77
2022-08-23T03:23:39.081Z,70.88
2022-08-23T03:26:07.848Z,70.71
2022-08-23T03:28:35.648Z,70.77
2022-08-23T03:31:02.742Z,71.10
2022-08-23T03:33:29.189Z,70.65
2022-08-23T03:36:03.688Z,70.62
2022-08-23T03:38:30.221Z,70.26
2022-08-23T03:40:57.160Z,70.57
2022-08-23T03:43:23.624Z,71.04
2022-08-23T03:45:50.231Z,70.97
2022-08-23T03:48:17.433Z,70.55
2022-08-23T03:50:44.381Z,70.66
2022-08-23T03:53:12.163Z,70.51
2022-08-23T03:55:42.697Z,70.51
2022-08-23T03:58:10.404Z,70.53
2022-08-23T04:00:36.963Z,70.12
2022-08-23T04:03:03.469Z,69.92
2022-08-23T04:05:29.966Z,70.31
2022-08-23T04:07:56.354Z,69.85
2022-08-23T04:10:22.797Z,70.09
2022-08-23T04:12:49.721Z,69.84
2022-08-23T04:15:16.205Z,69.87
2022-08-23T04:17:42.786Z,69.96
2022-08-23T04:20:09.515Z,69.57
2022-08-23T04:22:35.904Z,69.57
2022-08-23T04:25:03.150Z,69.53
2022-08-23T04:27:29.791Z,69.46
2022-08-23T04:29:56.184Z,69.20
2022-08-23T04:32:28.105Z,69.50
2022-08-23T04:34:55.095Z,69.26
2022-08-23T04:37:21.524Z,69.79
2022-08-23T04:40:06.702Z,69.47
2022-08-23T04:42:33.305Z,69.10
2022-08-23T04:45:01.085Z,69.58
2022-08-23T04:47:27.539Z,69.53
2022-08-23T04:49:53.945Z,69.59
2022-08-23T04:52:20.474Z,70.15
2022-08-23T04:54:47.217Z,70.41
2022-08-23T04:57:15.364Z,70.31
2022-08-23T04:59:42.364Z,70.05
2022-08-23T05:02:08.824Z,70.20
2022-08-23T05:04:35.321Z,70.10
2022-08-23T05:07:02.314Z,70.36
2022-08-23T05:09:29.096Z,70.30
2022-08-23T05:11:55.529Z,70.49
2022-08-23T05:14:21.932Z,70.20
2022-08-23T05:16:48.329Z,70.18
2022-08-23T05:19:14.757Z,70.08
2022-08-23T05:21:41.227Z,70.20
2022-08-23T05:24:07.700Z,69.43
2022-08-23T05:26:40.033Z,69.35
2022-08-23T05:29:06.921Z,69.75
2022-08-23T05:31:33.403Z,69.85
2022-08-23T05:33:59.871Z,69.56
2022-08-23T05:36:26.301Z,69.82
2022-08-23T05:38:53.378Z,69.63
2022-08-23T05:41:21.114Z,69.45
2022-08-23T05:43:48.235Z,69.76
2022-08-23T05:46:18.421Z,69.57
2022-08-23T05:48:48.369Z,69.49
2022-08-23T05:51:29.329Z,69.06
2022-08-23T05:54:00.504Z,68.48
2022-08-23T05:56:35.483Z,68.54
2022-08-23T05:59:06.510Z,68.77
2022-08-23T06:01:40.097Z,68.23
2022-08-23T06:04:09.013Z,68.35
2022-08-23T06:06:37.652Z,68.42
2022-08-23T06:09:05.906Z,68.36
2022-08-23T06:11:32.736Z,68.75
2022-08-23T06:14:01.649Z,68.91
2022-08-23T06:16:31.391Z,68.33
2022-08-23T06:18:58.917Z,68.63
2022-08-23T06:21:25.864Z,68.31
2022-08-23T06:23:52.426Z,68.76
2022-08-23T06:26:25.812Z,68.26
2022-08-23T06:28:55.071Z,68.43
2022-08-23T06:31:42.177Z,68.45
2022-08-23T06:34:10.041Z,68.98
2022-08-23T06:36:37.293Z,69.49
2022-08-23T06:39:05.164Z,69.84
2022-08-23T06:41:31.593Z,69.63
2022-08-23T06:43:58.329Z,69.95
2022-08-23T06:46:28.260Z,69.63
2022-08-23T06:48:56.293Z,68.84
2022-08-23T06:51:26.783Z,69.04
2022-08-23T06:53:55.106Z,68.95
2022-08-23T06:56:23.168Z,68.35
2022-08-23T06:58:50.021Z,68.77
2022-08-23T07:01:45.648Z,68.30
2022-08-23T07:04:14.759Z,67.59
2022-08-23T07:06:41.638Z,67.84
2022-08-23T07:09:08.048Z,67.33
2022-08-23T07:11:34.885Z,67.40
2022-08-23T07:14:04.507Z,67.14
2022-08-23T07:16:36.609Z,67.02
2022-08-23T07:19:04.041Z,66.06
2022-08-23T07:21:30.789Z,65.51
2022-08-23T07:23:57.355Z,64.81
2022-08-23T07:26:25.078Z,64.22
2022-08-23T07:28:51.558Z,63.59
2022-08-23T07:31:22.736Z,63.03
2022-08-23T07:33:49.490Z,62.98
2022-08-23T07:36:18.352Z,62.25
2022-08-23T07:38:45.915Z,61.91
2022-08-23T07:41:13.617Z,61.16
2022-08-23T07:43:40.528Z,60.71
2022-08-23T07:46:08.978Z,60.12
2022-08-23T07:48:53.338Z,59.34
2022-08-23T07:51:20.572Z,59.19
2022-08-23T07:53:47.395Z,59.19
2022-08-23T07:56:16.265Z,58.54
2022-08-23T07:58:42.709Z,58.67
2022-08-23T08:01:20.192Z,57.40
2022-08-23T08:03:48.073Z,58.00
2022-08-23T08:06:17.716Z,56.99
2022-08-23T08:08:44.401Z,56.86
2022-08-23T08:11:12.409Z,55.52
2022-08-23T08:13:40.339Z,55.52
2022-08-23T08:16:08.455Z,55.79
2022-08-23T08:18:36.549Z,55.74
2022-08-23T08:21:04.165Z,54.44
2022-08-23T08:23:30.901Z,54.91
2022-08-23T08:26:05.743Z,54.09
2022-08-23T08:28:33.092Z,54.40
2022-08-23T08:31:00.053Z,54.54
2022-08-23T08:33:27.542Z,54.85
2022-08-23T08:36:00.797Z,54.89
2022-08-23T08:38:30.573Z,54.24
2022-08-23T08:41:16.251Z,53.20
2022-08-23T08:44:04.057Z,52.05
2022-08-23T08:46:39.509Z,53.56
2022-08-23T08:49:07.640Z,52.70
2022-08-23T08:52:00.946Z,51.04
2022-08-23T08:54:29.269Z,50.74
2022-08-23T08:56:58.406Z,51.06
2022-08-23T08:59:34.695Z,50.96
2022-08-23T09:02:02.728Z,50.06
2022-08-23T09:04:31.603Z,49.76
2022-08-23T09:07:31.508Z,50.68
2022-08-23T09:10:09.425Z,49.84
2022-08-23T09:12:56.076Z,48.62
2022-08-23T09:15:38.109Z,47.65
2022-08-23T09:18:12.258Z,48.75
2022-08-23T09:20:40.940Z,48.36
2022-08-23T09:23:19.307Z,46.80
2022-08-23T09:25:54.272Z,46.86
2022-08-23T09:28:20.799Z,47.53
2022-08-23T09:30:56.289Z,47.84
2022-08-23T09:33:26.136Z,48.12
2022-08-23T09:36:18.293Z,49.94
2022-08-23T09:38:57.612Z,48.01
2022-08-23T09:41:36.515Z,49.13
2022-08-23T09:44:04.759Z,48.85
2022-08-23T09:46:33.077Z,48.04
2022-08-23T09:49:01.169Z,49.15
2022-08-23T09:51:35.045Z,49.50
2022-08-23T09:54:24.971Z,49.99
2022-08-23T09:56:53.557Z,48.39
2022-08-23T09:59:26.795Z,48.58
2022-08-23T10:01:58.943Z,47.50
2022-08-23T10:04:37.469Z,48.38
2022-08-23T10:07:42.607Z,46.28
2022-08-23T10:10:15.571Z,46.85
2022-08-23T10:12:42.071Z,46.75
2022-08-23T10:15:09.561Z,46.04
2022-08-23T10:17:52.757Z,44.56
2022-08-23T10:20:33.778Z,45.41
2022-08-23T10:23:16.031Z,45.18
2022-08-23T10:25:47.171Z,45.26
2022-08-23T10:28:54.846Z,46.05
2022-08-23T10:32:01.870Z,46.05
2022-08-23T10:34:50.943Z,45.76
2022-08-23T10:37:54.387Z,44.76
2022-08-23T10:40:36.060Z,45.56
2022-08-23T10:43:25.982Z,44.31
2022-08-23T10:45:56.106Z,45.16
2022-08-23T10:48:29.693Z,45.29
2022-08-23T10:51:00.069Z,45.65
2022-08-23T10:53:47.973Z,44.14
2022-08-23T10:56:21.023Z,44.44
2022-08-23T10:58:53.977Z,44.19
2022-08-23T11:01:37.069Z,43.77
2022-08-23T11:04:04.872Z,43.41
2022-08-23T11:06:37.498Z,42.25
2022-08-23T11:09:19.067Z,42.74
2022-08-23T11:11:48.861Z,42.38
2022-08-23T11:14:46.075Z,41.32
2022-08-23T11:17:25.124Z,41.24
2022-08-23T11:20:08.372Z,40.38
2022-08-23T11:22:57.302Z,40.21
2022-08-23T11:25:23.706Z,40.37
2022-08-23T11:27:50.300Z,40.88
2022-08-23T11:30:32.200Z,40.78
2022-08-23T11:33:17.341Z,39.83
2022-08-23T11:35:48.193Z,41.22
2022-08-23T11:38:22.499Z,40.56
2022-08-23T11:40:52.155Z,40.09
2022-08-23T11:43:34.502Z,39.18
2022-08-23T11:46:27.070Z,39.59
2022-08-23T11:48:56.449Z,38.67
2022-08-23T11:51:33.320Z,37.43
2022-08-23T11:54:23.993Z,38.26
2022-08-23T11:57:31.611Z,38.79
2022-08-23T12:00:10.936Z,37.79
2022-08-23T12:03:02.271Z,39.09
2022-08-23T12:06:01.676Z,39.72
2022-08-23T12:08:50.124Z,38.03
2022-08-23T12:11:18.195Z,37.65
2022-08-23T12:13:47.593Z,38.62
2022-08-23T12:16:16.605Z,38.46
2022-08-23T12:18:54.807Z,38.10
2022-08-23T12:21:24.621Z,37.92
2022-08-23T12:23:55.104Z,38.38
2022-08-23T12:26:24.527Z,38.17
2022-08-23T12:28:57.679Z,38.94
2022-08-23T12:31:40.555Z,39.81
2022-08-23T12:34:12.670Z,39.99
2022-08-23T12:36:46.175Z,40.73
2022-08-23T12:39:33.369Z,40.24
2022-08-23T12:42:10.722Z,40.07
2022-08-23T12:44:37.191Z,40.93
2022-08-23T12:47:14.961Z,41.41
2022-08-23T12:49:41.860Z,40.29
2022-08-23T12:52:11.123Z,39.84
2022-08-23T12:54:43.702Z,39.63
2022-08-23T12:57:30.333Z,38.20
2022-08-23T13:00:17.299Z,37.96
2022-08-23T13:02:49.899Z,37.49
2022-08-23T13:05:41.234Z,36.46
2022-08-23T13:08:11.977Z,35.75
2022-08-23T13:10:41.402Z,35.76
2022-08-23T13:13:13.357Z,33.45
2022-08-23T13:15:47.495Z,33.17
2022-08-23T13:18:32.285Z,33.38
2022-08-23T13:21:18.635Z,32.09
2022-08-23T13:23:47.927Z,32.68
2022-08-23T13:26:43.639Z,33.01
2022-08-23T13:29:26.561Z,32.05
2022-08-23T13:31:57.178Z,31.60
2022-08-23T13:34:37.008Z,31.84
2022-08-23T13:37:16.173Z,31.52
2022-08-23T13:39:48.954Z,32.12
2022-08-23T13:42:27.035Z,32.63
2022-08-23T13:44:54.511Z,33.87
2022-08-23T13:47:24.261Z,31.75
2022-08-23T13:49:51.236Z,31.62
2022-08-23T13:52:45.839Z,31.06
2022-08-23T13:55:05.379Z,30.67
2022-08-23T13:57:37.373Z,30.08
2022-08-23T14:00:08.195Z,29.26
2022-08-23T14:02:34.743Z,29.54
2022-08-23T14:05:01.379Z,28.66
2022-08-23T14:07:27.997Z,27.38
2022-08-23T14:09:55.183Z,27.94
2022-08-23T14:12:24.697Z,27.25
2022-08-23T14:14:57.819Z,27.93
2022-08-23T14:17:24.955Z,28.08
2022-08-23T14:22:41.678Z,27.62
2022-08-23T14:25:08.956Z,26.53
2022-08-23T14:27:35.565Z,26.02
2022-08-23T14:30:04.323Z,25.83
2022-08-23T14:32:33.182Z,26.10
2022-08-23T14:35:00.090Z,24.85
2022-08-23T14:40:13.191Z,25.95
2022-08-23T14:42:39.893Z,26.75
2022-08-23T14:45:07.048Z,27.33
2022-08-23T14:47:35.492Z,27.90
2022-08-23T14:50:04.594Z,29.53
2022-08-23T14:52:31.227Z,28.19
2022-08-23T14:54:58.005Z,26.87
2022-08-23T14:57:24.688Z,26.86
2022-08-23T14:59:51.222Z,27.26
2022-08-23T15:02:26.358Z,25.81
2022-08-23T15:04:53.893Z,26.56
2022-08-23T15:07:20.557Z,26.00
2022-08-23T15:09:49.068Z,25.97
2022-08-23T15:15:06.101Z,29.16
2022-08-23T15:17:36.584Z,30.94
2022-08-23T15:20:04.068Z,31.78
2022-08-23T15:22:32.864Z,30.52
2022-08-23T15:25:06.731Z,30.66
2022-08-23T15:27:33.250Z,31.57
2022-08-23T15:30:02.395Z,31.55
2022-08-23T15:32:28.860Z,32.80
2022-08-23T15:34:59.031Z,33.98
2022-08-23T15:37:25.891Z,35.66
2022-08-23T15:39:52.549Z,36.89
2022-08-23T15:42:20.573Z,38.12
2022-08-23T15:44:48.110Z,40.89
2022-08-23T15:47:22.365Z,41.94
2022-08-23T15:49:49.279Z,42.21
2022-08-23T15:52:16.137Z,41.80
2022-08-23T15:54:46.488Z,41.00
2022-08-23T15:57:17.595Z,39.17
2022-08-23T15:59:44.462Z,37.95
2022-08-23T16:02:11.603Z,37.87
2022-08-23T16:04:40.788Z,37.23
2022-08-23T16:07:09.459Z,35.99
2022-08-23T16:09:36.368Z,35.16
2022-08-23T16:12:04.716Z,34.80
2022-08-23T16:14:32.441Z,34.85
2022-08-23T16:17:00.315Z,34.57
2022-08-23T16:19:27.945Z,33.70
2022-08-23T16:21:55.403Z,34.75
2022-08-23T16:24:24.709Z,33.79
2022-08-23T16:27:07.749Z,33.26
2022-08-23T16:29:36.175Z,33.30
2022-08-23T16:32:09.467Z,33.35
2022-08-23T16:34:36.105Z,33.02
2022-08-23T16:37:06.847Z,34.35
2022-08-23T16:39:34.577Z,33.49
2022-08-23T16:42:05.759Z,34.23
2022-08-23T16:44:35.268Z,34.00
2022-08-23T16:47:03.494Z,33.04
2022-08-23T16:49:30.291Z,34.00
2022-08-23T16:51:57.335Z,34.08
2022-08-23T16:54:35.634Z,35.21
2022-08-23T16:57:02.587Z,36.48
2022-08-23T16:59:29.812Z,36.14
2022-08-23T17:01:59.644Z,38.67
2022-08-23T17:04:30.822Z,38.55
2022-08-23T17:06:58.323Z,39.50
2022-08-23T17:09:27.149Z,40.91
2022-08-23T17:11:54.802Z,40.58
2022-08-23T17:14:24.184Z,41.03
2022-08-23T17:16:50.736Z,41.25
2022-08-23T17:19:17.230Z,42.42
2022-08-23T17:21:43.667Z,42.60
2022-08-23T17:24:10.137Z,43.44
2022-08-23T17:26:37.607Z,44.30
2022-08-23T17:29:08.858Z,44.46
2022-08-23T17:31:36.374Z,45.61
2022-08-23T17:34:07.528Z,47.77
2022-08-23T17:36:38.359Z,49.56
2022-08-23T17:39:08.913Z,50.82
2022-08-23T17:41:35.626Z,51.36
2022-08-23T17:44:03.727Z,51.75
2022-08-23T17:46:30.167Z,51.69
2022-08-23T17:48:57.694Z,51.35
2022-08-23T17:51:24.540Z,52.74
2022-08-23T17:53:51.103Z,52.51
2022-08-23T17:56:17.568Z,53.15
2022-08-23T17:58:44.255Z,53.95
2022-08-23T18:01:11.316Z,54.45
2022-08-23T18:03:38.856Z,54.50
2022-08-23T18:06:16.341Z,54.97
2022-08-23T18:08:44.895Z,55.23
2022-08-23T18:11:11.415Z,55.51
2022-08-23T18:13:38.225Z,56.13
2022-08-23T18:16:05.019Z,56.19
2022-08-23T18:18:32.221Z,55.87
2022-08-23T18:20:58.794Z,56.42
2022-08-23T18:23:26.177Z,56.67
2022-08-23T18:25:52.631Z,56.80
2022-08-23T18:28:19.090Z,56.59
2022-08-23T18:30:57.532Z,57.40
2022-08-23T18:33:31.779Z,57.90
2022-08-23T18:36:01.917Z,58.02
2022-08-23T18:38:28.370Z,57.96
2022-08-23T18:40:55.021Z,57.97
2022-08-23T18:43:24.334Z,58.72
2022-08-23T18:45:53.428Z,59.19
2022-08-23T18:48:22.157Z,59.61
2022-08-23T18:50:49.629Z,59.74
2022-08-23T18:53:18.794Z,59.94
2022-08-23T18:55:45.781Z,60.39
2022-08-23T18:58:12.411Z,61.03
2022-08-23T19:00:39.465Z,61.14
2022-08-23T19:03:06.886Z,61.79
2022-08-23T19:05:41.472Z,62.80
2022-08-23T19:08:09.930Z,62.92
2022-08-23T19:10:36.644Z,63.68
2022-08-23T19:13:04.423Z,63.62
2022-08-23T19:15:33.337Z,64.42
2022-08-23T19:18:00.860Z,64.89
2022-08-23T19:20:27.718Z,64.96
2022-08-23T19:22:55.729Z,65.07
2022-08-23T19:25:22.481Z,65.23
2022-08-23T19:27:48.925Z,65.25
2022-08-23T19:30:17.457Z,66.09
2022-08-23T19:32:45.099Z,65.65
2022-08-23T19:35:12.858Z,65.69
2022-08-23T19:37:39.442Z,65.61
2022-08-23T19:40:07.125Z,66.03
2022-08-23T19:42:36.881Z,66.05
2022-08-23T19:45:07.748Z,66.24
2022-08-23T19:47:34.743Z,66.38
2022-08-23T19:50:02.722Z,66.60
2022-08-23T19:52:29.162Z,66.65
2022-08-23T19:55:05.128Z,67.31
2022-08-23T19:57:32.701Z,67.09
2022-08-23T20:00:00.771Z,67.43
2022-08-23T20:02:28.097Z,67.60
2022-08-23T20:04:54.580Z,67.29
2022-08-23T20:07:21.173Z,67.67
2022-08-23T20:09:47.583Z,68.06
2022-08-23T20:12:15.505Z,68.43
2022-08-23T20:14:42.202Z,68.93
2022-08-23T20:17:08.742Z,68.44
2022-08-23T20:19:35.571Z,68.71
2022-08-23T20:22:21.702Z,68.57
2022-08-23T20:24:52.014Z,69.41
2022-08-23T20:27:28.287Z,69.79
2022-08-23T20:29:58.791Z,69.97
2022-08-23T20:32:26.273Z,70.48
2022-08-23T20:34:52.738Z,70.67
2022-08-23T20:37:19.704Z,71.25
2022-08-23T20:39:46.332Z,71.25
2022-08-23T20:42:12.857Z,71.10
2022-08-23T20:44:39.360Z,71.67
2022-08-23T20:47:08.183Z,71.92
2022-08-23T20:49:34.816Z,72.60
2022-08-23T20:52:01.406Z,73.14
2022-08-23T20:54:27.941Z,73.13
2022-08-23T20:56:54.404Z,72.97
2022-08-23T20:59:20.887Z,72.58
2022-08-23T21:01:47.951Z,73.50
2022-08-23T21:04:14.615Z,74.05
2022-08-23T21:06:47.033Z,74.44
2022-08-23T21:09:16.962Z,74.44
2022-08-23T21:11:43.499Z,75.67
2022-08-23T21:14:10.118Z,74.39
2022-08-23T21:16:36.763Z,74.59
2022-08-23T21:19:03.802Z,74.25
2022-08-23T21:21:30.422Z,74.32
2022-08-23T21:23:57.418Z,74.32
2022-08-23T21:26:24.514Z,74.64
2022-08-23T21:28:51.838Z,74.87
2022-08-23T21:31:21.781Z,75.27
2022-08-23T21:33:48.750Z,75.90
2022-08-23T21:36:15.786Z,75.90
2022-08-23T21:38:42.428Z,76.34
2022-08-23T21:41:48.086Z,76.78
2022-08-23T21:44:18.211Z,76.55
2022-08-23T21:46:45.137Z,76.60
2022-08-23T21:49:12.739Z,76.97
2022-08-23T21:51:39.950Z,76.69
2022-08-23T21:54:14.370Z,76.84
2022-08-23T21:56:41.472Z,77.63
2022-08-23T21:59:11.195Z,77.38
2022-08-23T22:01:39.269Z,77.59
2022-08-23T22:04:07.692Z,77.82
2022-08-23T22:06:35.018Z,77.97
2022-08-23T22:09:01.839Z,77.57
2022-08-23T22:11:29.061Z,77.64
2022-08-23T22:13:55.838Z,77.66
2022-08-23T22:16:22.786Z,77.67
2022-08-23T22:18:49.281Z,78.13
2022-08-23T22:21:15.701Z,78.13
2022-08-23T22:23:44.586Z,78.20
2022-08-23T22:26:13.694Z,77.87
2022-08-23T22:28:44.278Z,77.11
2022-08-23T22:31:12.905Z,77.59
2022-08-23T22:33:40.363Z,78.21
2022-08-23T22:36:14.504Z,78.49
2022-08-23T22:38:40.938Z,78.90
2022-08-23T22:41:07.486Z,78.59
2022-08-23T22:43:34.358Z,77.98
2022-08-23T22:46:03.274Z,78.01
2022-08-23T22:48:31.489Z,78.24
2022-08-23T22:51:13.964Z,78.81
2022-08-23T22:53:44.490Z,78.18
2022-08-23T22:56:13.652Z,77.74
2022-08-23T22:58:40.447Z,78.41
2022-08-23T23:01:13.058Z,78.56
2022-08-23T23:03:41.223Z,78.62
2022-08-23T23:06:07.968Z,79.35
2022-08-23T23:08:34.386Z,79.38
2022-08-23T23:11:03.945Z,78.81
2022-08-23T23:13:31.521Z,78.49
2022-08-23T23:15:59.902Z,77.97
2022-08-23T23:18:26.702Z,77.88
2022-08-23T23:20:57.855Z,78.22
2022-08-23T23:23:24.558Z,78.34
2022-08-23T23:25:51.567Z,79.17
2022-08-23T23:28:18.919Z,79.42
2022-08-23T23:30:47.251Z,79.76
2022-08-23T23:33:14.807Z,79.22
2022-08-23T23:35:41.888Z,79.26
2022-08-23T23:38:09.586Z,78.63
2022-08-23T23:40:37.171Z,77.88
2022-08-23T23:43:03.847Z,78.63
2022-08-23T23:45:30.368Z,78.42
2022-08-23T23:47:56.951Z,78.47
2022-08-23T23:50:23.973Z,78.96
2022-08-23T23:52:50.975Z,79.18
2022-08-23T23:55:19.153Z,79.58
2022-08-23T23:57:45.764Z,79.45
